createdAt,value
2022-07-31T00:00:22.610Z,48.50
2022-07-31T00:02:49.302Z,48.60
2022-07-31T00:05:16.001Z,48.50
2022-07-31T00:07:43.051Z,48.60
2022-07-31T00:10:10.140Z,48.60
2022-07-31T00:12:36.940Z,48.60
2022-07-31T00:15:05.785Z,48.70
2022-07-31T00:17:33.236Z,48.80
2022-07-31T00:19:59.931Z,48.80
2022-07-31T00:22:26.907Z,48.90
2022-07-31T00:24:53.657Z,48.90
2022-07-31T00:27:20.942Z,49.00
2022-07-31T00:29:47.623Z,49.00
2022-07-31T00:32:14.489Z,49.00
2022-07-31T00:34:42.333Z,49.00
2022-07-31T00:37:10.012Z,49.00
2022-07-31T00:39:36.813Z,49.10
2022-07-31T00:42:03.621Z,49.20
2022-07-31T00:44:30.303Z,49.30
2022-07-31T00:46:58.843Z,49.30
2022-07-31T00:49:28.378Z,49.40
2022-07-31T00:52:05.283Z,49.40
2022-07-31T00:54:32.389Z,49.50
2022-07-31T00:56:59.177Z,49.50
2022-07-31T00:59:28.384Z,49.60
2022-07-31T01:01:55.838Z,49.70
2022-07-31T01:04:22.645Z,49.70
2022-07-31T01:06:49.440Z,49.80
2022-07-31T01:09:16.704Z,49.90
2022-07-31T01:11:58.063Z,49.90
2022-07-31T01:14:27.814Z,50.10
2022-07-31T01:16:55.503Z,50.00
2022-07-31T01:19:39.767Z,50.00
2022-07-31T01:22:33.269Z,50.10
2022-07-31T01:25:10.048Z,50.30
2022-07-31T01:28:03.104Z,50.10
2022-07-31T01:30:34.925Z,50.30
2022-07-31T01:33:09.215Z,50.20
2022-07-31T01:35:42.877Z,50.30
2022-07-31T01:38:13.426Z,50.30
2022-07-31T01:40:48.599Z,50.20
2022-07-31T01:43:32.953Z,50.30
2022-07-31T01:46:01.106Z,50.40
2022-07-31T01:48:27.864Z,50.30
2022-07-31T01:50:56.000Z,50.30
2022-07-31T01:53:24.335Z,50.40
2022-07-31T01:56:02.409Z,50.40
2022-07-31T01:58:35.049Z,50.50
2022-07-31T02:01:03.913Z,50.50
2022-07-31T02:03:44.124Z,50.50
2022-07-31T02:06:17.194Z,50.50
2022-07-31T02:08:45.836Z,50.60
2022-07-31T02:11:14.416Z,50.60
2022-07-31T02:13:41.156Z,50.60
2022-07-31T02:16:08.557Z,50.60
2022-07-31T02:18:35.652Z,50.60
2022-07-31T02:21:02.455Z,50.80
2022-07-31T02:23:29.180Z,50.80
2022-07-31T02:25:56.184Z,50.70
2022-07-31T02:28:23.219Z,50.70
2022-07-31T02:30:50.592Z,50.70
2022-07-31T02:33:21.322Z,50.70
2022-07-31T02:35:49.788Z,50.80
2022-07-31T02:38:23.345Z,50.80
2022-07-31T02:40:51.523Z,50.80
2022-07-31T02:43:19.089Z,50.80
2022-07-31T02:45:46.436Z,50.90
2022-07-31T02:48:13.163Z,50.90
2022-07-31T02:50:40.118Z,50.80
2022-07-31T02:53:07.182Z,50.90
2022-07-31T02:55:34.361Z,50.90
2022-07-31T02:58:02.664Z,51.00
2022-07-31T03:00:29.692Z,51.60
2022-07-31T03:02:57.669Z,51.00
2022-07-31T03:05:24.764Z,51.10
2022-07-31T03:07:51.656Z,51.20
2022-07-31T03:10:18.460Z,51.80
2022-07-31T03:12:47.918Z,51.30
2022-07-31T03:15:16.817Z,51.30
2022-07-31T03:17:44.795Z,51.30
2022-07-31T03:20:12.525Z,51.30
2022-07-31T03:22:39.988Z,51.30
2022-07-31T03:25:08.111Z,51.30
2022-07-31T03:27:35.369Z,51.30
2022-07-31T03:30:02.324Z,51.30
2022-07-31T03:32:29.101Z,51.30
2022-07-31T03:34:56.063Z,51.40
2022-07-31T03:37:23.196Z,51.40
2022-07-31T03:39:49.887Z,51.40
2022-07-31T03:42:19.197Z,51.40
2022-07-31T03:44:46.704Z,51.40
2022-07-31T03:47:13.470Z,51.40
2022-07-31T03:49:43.474Z,51.50
2022-07-31T03:52:12.603Z,51.60
2022-07-31T03:54:40.281Z,51.60
2022-07-31T03:57:08.628Z,51.60
2022-07-31T03:59:40.704Z,51.60
2022-07-31T04:02:15.400Z,51.60
2022-07-31T04:04:45.679Z,51.50
2022-07-31T04:07:12.394Z,51.50
2022-07-31T04:09:39.261Z,51.50
2022-07-31T04:12:06.795Z,51.50
2022-07-31T04:14:33.852Z,51.40
2022-07-31T04:17:00.608Z,51.20
2022-07-31T04:19:30.926Z,51.10
2022-07-31T04:21:58.572Z,51.10
2022-07-31T04:24:25.956Z,51.10
2022-07-31T04:26:55.294Z,51.10
2022-07-31T04:29:22.394Z,51.10
2022-07-31T04:31:49.131Z,51.00
2022-07-31T04:34:15.875Z,51.00
2022-07-31T04:36:42.603Z,51.00
2022-07-31T04:39:09.334Z,50.80
2022-07-31T04:41:36.290Z,50.70
2022-07-31T04:44:03.103Z,50.80
2022-07-31T04:46:29.824Z,50.60
2022-07-31T04:48:56.717Z,50.50
2022-07-31T04:51:24.408Z,50.40
2022-07-31T04:53:51.383Z,50.40
2022-07-31T04:56:34.272Z,50.30
2022-07-31T04:59:05.961Z,50.20
2022-07-31T05:01:33.952Z,50.20
2022-07-31T05:04:01.217Z,50.10
2022-07-31T05:06:41.629Z,50.10
2022-07-31T05:09:17.799Z,50.20
2022-07-31T05:11:46.514Z,50.10
2022-07-31T05:14:15.052Z,50.10
2022-07-31T05:16:42.035Z,50.00
2022-07-31T05:19:14.695Z,50.00
2022-07-31T05:21:53.144Z,49.90
2022-07-31T05:24:32.565Z,49.80
2022-07-31T05:27:01.963Z,49.70
2022-07-31T05:29:28.923Z,49.80
2022-07-31T05:31:59.319Z,49.80
2022-07-31T05:34:31.098Z,49.80
2022-07-31T05:37:01.071Z,49.80
2022-07-31T05:39:28.684Z,49.80
2022-07-31T05:41:55.507Z,49.70
2022-07-31T05:44:22.332Z,49.50
2022-07-31T05:49:15.891Z,49.20
2022-07-31T05:51:46.718Z,49.10
2022-07-31T05:54:13.958Z,49.10
2022-07-31T05:56:40.679Z,49.00
2022-07-31T05:59:07.416Z,48.90
2022-07-31T06:01:34.183Z,48.80
2022-07-31T06:04:00.997Z,48.70
2022-07-31T06:06:27.694Z,48.70
2022-07-31T06:08:54.669Z,48.60
2022-07-31T06:11:21.600Z,48.50
2022-07-31T06:13:48.344Z,48.20
2022-07-31T06:16:15.464Z,48.30
2022-07-31T06:18:42.520Z,48.20
2022-07-31T06:21:09.860Z,48.20
2022-07-31T06:23:36.819Z,48.00
2022-07-31T06:26:04.141Z,48.00
2022-07-31T06:28:48.119Z,47.80
2022-07-31T06:31:20.746Z,47.80
2022-07-31T06:33:48.789Z,47.60
2022-07-31T06:36:17.467Z,47.70
2022-07-31T06:38:44.194Z,47.60
2022-07-31T06:41:10.954Z,47.30
2022-07-31T06:43:37.662Z,47.30
2022-07-31T06:46:04.412Z,47.40
2022-07-31T06:48:31.102Z,47.40
2022-07-31T06:53:44.519Z,47.40
2022-07-31T06:56:11.397Z,47.40
2022-07-31T06:58:38.104Z,47.30
2022-07-31T07:01:04.914Z,47.30
2022-07-31T07:03:31.692Z,47.40
2022-07-31T07:05:58.447Z,47.50
2022-07-31T07:08:25.367Z,47.40
2022-07-31T07:10:52.083Z,47.30
2022-07-31T07:13:18.823Z,47.30
2022-07-31T07:15:45.840Z,47.40
2022-07-31T07:18:12.693Z,47.30
2022-07-31T07:20:39.480Z,47.00
2022-07-31T07:23:06.642Z,46.90
2022-07-31T07:25:33.449Z,47.00
2022-07-31T07:28:00.243Z,46.90
2022-07-31T07:30:28.633Z,46.60
2022-07-31T07:32:55.416Z,46.30
2022-07-31T07:35:22.357Z,46.00
2022-07-31T07:37:49.267Z,46.10
2022-07-31T07:40:17.112Z,46.50
2022-07-31T07:42:44.080Z,46.60
2022-07-31T07:45:11.271Z,46.90
2022-07-31T07:47:53.969Z,47.10
2022-07-31T07:50:29.221Z,47.10
2022-07-31T07:52:56.749Z,47.20
2022-07-31T07:55:23.652Z,47.00
2022-07-31T07:57:50.544Z,46.50
2022-07-31T08:00:17.507Z,46.70
2022-07-31T08:03:47.490Z,46.50
2022-07-31T08:05:32.572Z,46.00
2022-07-31T08:07:59.690Z,45.30
2022-07-31T08:10:26.480Z,45.20
2022-07-31T08:12:54.775Z,44.70
2022-07-31T08:15:21.547Z,44.90
2022-07-31T08:17:48.473Z,44.80
2022-07-31T08:20:15.343Z,44.60
2022-07-31T08:22:42.088Z,45.10
2022-07-31T08:25:14.234Z,44.80
2022-07-31T08:27:41.981Z,44.90
2022-07-31T08:30:09.851Z,44.80
2022-07-31T08:32:36.726Z,44.40
2022-07-31T08:35:03.589Z,44.40
2022-07-31T08:37:50.935Z,44.40
2022-07-31T08:40:18.040Z,44.50
2022-07-31T08:42:46.056Z,44.30
2022-07-31T08:45:13.939Z,44.40
2022-07-31T08:47:42.651Z,44.40
2022-07-31T08:50:12.149Z,44.20
2022-07-31T08:52:40.636Z,43.60
2022-07-31T08:55:08.725Z,43.70
2022-07-31T08:57:36.981Z,43.40
2022-07-31T09:00:08.196Z,43.60
2022-07-31T09:02:37.941Z,43.60
2022-07-31T09:05:05.267Z,43.60
2022-07-31T09:07:31.961Z,43.60
2022-07-31T09:09:58.681Z,43.70
2022-07-31T09:12:33.926Z,43.50
2022-07-31T09:15:01.385Z,43.60
2022-07-31T09:17:35.721Z,43.00
2022-07-31T09:20:03.712Z,42.80
2022-07-31T09:22:31.272Z,43.40
2022-07-31T09:25:18.736Z,42.80
2022-07-31T09:27:47.604Z,42.70
2022-07-31T09:30:15.860Z,42.90
2022-07-31T09:32:43.274Z,42.80
2022-07-31T09:35:12.133Z,43.00
2022-07-31T09:37:40.132Z,42.80
2022-07-31T09:40:08.377Z,43.50
2022-07-31T09:42:45.736Z,43.40
2022-07-31T09:45:23.480Z,44.00
2022-07-31T09:48:04.883Z,44.20
2022-07-31T09:50:33.109Z,44.30
2022-07-31T09:53:00.898Z,44.40
2022-07-31T09:55:28.137Z,44.40
2022-07-31T09:57:59.808Z,43.30
2022-07-31T10:00:27.450Z,43.30
2022-07-31T10:02:56.048Z,43.20
2022-07-31T10:05:27.670Z,43.10
2022-07-31T10:07:57.342Z,43.20
2022-07-31T10:10:24.491Z,43.40
2022-07-31T10:12:54.622Z,43.80
2022-07-31T10:15:23.462Z,43.50
2022-07-31T10:17:52.430Z,43.30
2022-07-31T10:20:22.297Z,43.60
2022-07-31T10:22:56.252Z,44.00
2022-07-31T10:25:28.908Z,43.20
2022-07-31T10:27:57.405Z,42.50
2022-07-31T10:30:28.066Z,42.10
2022-07-31T10:32:56.208Z,42.00
2022-07-31T10:35:23.151Z,42.30
2022-07-31T10:38:04.293Z,42.20
2022-07-31T10:40:40.558Z,42.10
2022-07-31T10:43:24.706Z,42.40
2022-07-31T10:45:53.216Z,42.40
2022-07-31T10:48:20.447Z,42.70
2022-07-31T10:50:48.166Z,42.40
2022-07-31T10:53:17.423Z,42.60
2022-07-31T10:55:45.065Z,42.40
2022-07-31T10:58:22.038Z,42.70
2022-07-31T11:00:52.053Z,42.50
2022-07-31T11:03:20.376Z,42.90
2022-07-31T11:06:01.500Z,42.50
2022-07-31T11:08:44.260Z,42.10
2022-07-31T11:11:11.579Z,42.30
2022-07-31T11:14:04.827Z,42.80
2022-07-31T11:16:31.564Z,42.60
2022-07-31T11:19:04.008Z,42.60
2022-07-31T11:21:40.338Z,42.50
2022-07-31T11:24:13.547Z,41.90
2022-07-31T11:26:50.494Z,41.80
2022-07-31T11:29:59.336Z,41.10
2022-07-31T11:32:26.125Z,40.60
2022-07-31T11:34:55.621Z,40.70
2022-07-31T11:37:26.638Z,41.00
2022-07-31T11:40:05.597Z,40.70
2022-07-31T11:42:43.762Z,40.30
2022-07-31T11:45:12.434Z,39.80
2022-07-31T11:48:11.769Z,40.00
2022-07-31T11:50:40.498Z,40.00
2022-07-31T11:53:07.633Z,40.10
2022-07-31T11:55:44.964Z,39.40
2022-07-31T11:58:12.049Z,39.00
2022-07-31T12:00:38.886Z,39.00
2022-07-31T12:03:05.997Z,38.80
2022-07-31T12:05:37.630Z,38.80
2022-07-31T12:08:07.516Z,38.70
2022-07-31T12:10:34.496Z,38.90
2022-07-31T12:13:02.548Z,39.40
2022-07-31T12:15:29.619Z,39.90
2022-07-31T12:18:05.249Z,40.50
2022-07-31T12:20:37.158Z,40.90
2022-07-31T12:23:06.243Z,40.30
2022-07-31T12:25:41.820Z,40.60
2022-07-31T12:28:09.454Z,40.00
2022-07-31T12:30:36.506Z,40.20
2022-07-31T12:33:08.381Z,40.10
2022-07-31T12:35:55.313Z,39.10
2022-07-31T12:38:44.707Z,39.30
2022-07-31T12:41:14.365Z,39.40
2022-07-31T12:43:50.132Z,39.50
2022-07-31T12:46:33.597Z,39.70
2022-07-31T12:49:00.721Z,39.40
2022-07-31T12:51:44.300Z,38.80
2022-07-31T12:54:14.012Z,38.70
2022-07-31T12:56:42.080Z,38.60
2022-07-31T12:59:09.587Z,38.60
2022-07-31T13:01:37.128Z,38.40
2022-07-31T13:04:07.722Z,38.40
2022-07-31T13:06:48.737Z,38.50
2022-07-31T13:09:15.934Z,38.40
2022-07-31T13:11:46.960Z,38.20
2022-07-31T13:14:16.600Z,38.40
2022-07-31T13:16:44.171Z,38.00
2022-07-31T13:19:11.123Z,38.10
2022-07-31T13:21:48.463Z,37.90
2022-07-31T13:24:18.816Z,37.10
2022-07-31T13:26:45.770Z,37.00
2022-07-31T13:29:12.779Z,37.30
2022-07-31T13:31:39.607Z,37.50
2022-07-31T13:34:06.572Z,37.10
2022-07-31T13:36:36.236Z,36.70
2022-07-31T13:39:07.555Z,37.00
2022-07-31T13:41:35.589Z,36.30
2022-07-31T13:44:03.361Z,36.60
2022-07-31T13:46:31.245Z,37.20
2022-07-31T13:48:59.583Z,38.00
2022-07-31T13:51:29.288Z,38.00
2022-07-31T13:53:56.503Z,38.10
2022-07-31T13:56:39.045Z,37.80
2022-07-31T13:59:13.283Z,38.00
2022-07-31T14:02:05.172Z,37.50
2022-07-31T14:04:32.438Z,38.00
2022-07-31T14:07:03.388Z,38.60
2022-07-31T14:09:34.010Z,38.60
2022-07-31T14:12:03.877Z,38.40
2022-07-31T14:14:31.878Z,38.80
2022-07-31T14:16:58.631Z,38.50
2022-07-31T14:19:25.360Z,38.60
2022-07-31T14:21:56.944Z,38.10
2022-07-31T14:24:26.368Z,38.20
2022-07-31T14:26:53.411Z,38.00
2022-07-31T14:29:20.160Z,37.90
2022-07-31T14:31:46.893Z,38.00
2022-07-31T14:34:13.632Z,37.80
2022-07-31T14:36:40.341Z,37.90
2022-07-31T14:39:07.027Z,38.00
2022-07-31T14:41:33.711Z,38.20
2022-07-31T14:44:00.510Z,38.30
2022-07-31T14:46:27.196Z,38.40
2022-07-31T14:48:53.959Z,38.60
2022-07-31T14:51:20.852Z,38.20
2022-07-31T14:53:47.804Z,38.10
2022-07-31T14:56:17.285Z,38.10
2022-07-31T14:58:58.179Z,38.10
2022-07-31T15:01:26.930Z,38.30
2022-07-31T15:03:57.674Z,37.90
2022-07-31T15:06:50.835Z,37.90
2022-07-31T15:09:12.412Z,38.20
2022-07-31T15:11:59.276Z,38.50
2022-07-31T15:14:27.492Z,38.40
2022-07-31T15:16:54.256Z,38.20
2022-07-31T15:19:20.958Z,38.10
2022-07-31T15:22:10.406Z,38.10
2022-07-31T15:24:34.380Z,38.00
2022-07-31T15:27:01.078Z,38.10
2022-07-31T15:30:05.553Z,38.00
2022-07-31T15:32:14.605Z,38.20
2022-07-31T15:34:41.362Z,38.50
2022-07-31T15:37:08.322Z,39.10
2022-07-31T15:39:35.239Z,39.10
2022-07-31T15:42:02.520Z,39.30
2022-07-31T15:44:29.216Z,39.50
2022-07-31T15:46:55.934Z,39.40
2022-07-31T15:49:24.638Z,39.40
2022-07-31T15:51:51.869Z,39.30
2022-07-31T15:54:18.579Z,39.30
2022-07-31T15:56:47.210Z,38.90
2022-07-31T15:59:13.898Z,38.80
2022-07-31T16:01:40.733Z,38.30
2022-07-31T16:04:16.602Z,38.10
2022-07-31T16:06:47.476Z,38.20
2022-07-31T16:09:17.303Z,38.50
2022-07-31T16:12:04.456Z,38.90
2022-07-31T16:14:30.841Z,39.10
2022-07-31T16:16:57.640Z,39.20
2022-07-31T16:19:25.140Z,39.20
2022-07-31T16:21:53.059Z,39.20
2022-07-31T16:24:22.315Z,39.20
2022-07-31T16:26:49.779Z,39.50
2022-07-31T16:29:17.763Z,39.70
2022-07-31T16:32:04.271Z,39.60
2022-07-31T16:34:31.010Z,39.70
2022-07-31T16:36:57.726Z,39.70
2022-07-31T16:39:24.433Z,39.90
2022-07-31T16:41:54.472Z,40.00
2022-07-31T16:44:21.970Z,40.20
2022-07-31T16:46:54.170Z,40.20
2022-07-31T16:49:35.411Z,40.30
2022-07-31T16:52:03.624Z,40.40
2022-07-31T16:54:30.312Z,40.40
2022-07-31T16:56:57.140Z,40.40
2022-07-31T16:59:23.837Z,40.40
2022-07-31T17:01:57.585Z,40.50
2022-07-31T17:04:27.491Z,40.40
2022-07-31T17:06:54.428Z,40.30
2022-07-31T17:09:21.596Z,39.90
2022-07-31T17:11:53.796Z,39.60
2022-07-31T17:14:22.659Z,39.50
2022-07-31T17:16:50.253Z,39.60
2022-07-31T17:19:41.881Z,39.70
2022-07-31T17:22:17.716Z,39.90
2022-07-31T17:24:51.741Z,40.10
2022-07-31T17:27:22.525Z,40.00
2022-07-31T17:29:49.422Z,39.90
2022-07-31T17:32:17.447Z,39.90
2022-07-31T17:34:45.801Z,39.90
2022-07-31T17:37:13.181Z,40.00
2022-07-31T17:39:40.267Z,40.10
2022-07-31T17:42:10.280Z,40.20
2022-07-31T17:44:38.263Z,40.30
2022-07-31T17:47:08.049Z,40.20
2022-07-31T17:49:35.292Z,40.30
2022-07-31T17:52:02.036Z,40.30
2022-07-31T17:54:30.655Z,40.20
2022-07-31T17:57:00.675Z,40.20
2022-07-31T17:59:27.870Z,40.20
2022-07-31T18:02:00.125Z,40.40
2022-07-31T18:04:28.201Z,40.40
2022-07-31T18:06:55.272Z,40.30
2022-07-31T18:09:23.439Z,40.10
2022-07-31T18:11:51.433Z,40.30
2022-07-31T18:14:18.485Z,40.10
2022-07-31T18:16:45.822Z,40.20
2022-07-31T18:19:13.205Z,40.30
2022-07-31T18:21:40.148Z,40.20
2022-07-31T18:24:07.452Z,40.10
2022-07-31T18:26:35.409Z,39.90
2022-07-31T18:29:02.320Z,39.80
2022-07-31T18:31:34.446Z,39.80
2022-07-31T18:34:02.545Z,39.70
2022-07-31T18:36:29.293Z,39.70
2022-07-31T18:38:56.063Z,39.70
2022-07-31T18:41:22.784Z,39.80
2022-07-31T18:43:49.563Z,39.90
2022-07-31T18:46:16.319Z,40.00
2022-07-31T18:48:44.096Z,40.00
2022-07-31T18:51:11.472Z,39.90
2022-07-31T18:53:38.227Z,39.90
2022-07-31T18:56:05.078Z,39.90
2022-07-31T18:58:31.930Z,40.00
2022-07-31T19:00:58.771Z,40.00
2022-07-31T19:03:26.360Z,40.10
2022-07-31T19:05:54.404Z,40.20
2022-07-31T19:08:21.480Z,40.20
2022-07-31T19:10:53.426Z,40.30
2022-07-31T19:13:21.243Z,40.50
2022-07-31T19:15:48.792Z,40.50
2022-07-31T19:18:15.909Z,40.70
2022-07-31T19:20:58.812Z,40.80
2022-07-31T19:23:32.828Z,40.90
2022-07-31T19:26:03.402Z,41.00
2022-07-31T19:28:31.996Z,41.10
2022-07-31T19:30:58.770Z,41.30
2022-07-31T19:33:25.607Z,41.30
2022-07-31T19:35:58.391Z,41.40
2022-07-31T19:38:27.845Z,41.60
2022-07-31T19:40:55.083Z,41.60
2022-07-31T19:43:22.046Z,41.70
2022-07-31T19:46:09.447Z,41.90
2022-07-31T19:48:36.602Z,42.00
2022-07-31T19:51:04.142Z,42.20
2022-07-31T19:53:31.058Z,42.20
2022-07-31T19:55:58.136Z,42.30
2022-07-31T19:58:24.845Z,42.50
2022-07-31T20:00:51.569Z,42.70
2022-07-31T20:03:18.725Z,42.80
2022-07-31T20:05:45.528Z,42.90
2022-07-31T20:08:12.277Z,42.90
2022-07-31T20:10:39.031Z,42.90
2022-07-31T20:13:05.755Z,43.20
2022-07-31T20:15:52.660Z,43.30
2022-07-31T20:18:28.008Z,43.50
2022-07-31T20:21:03.765Z,43.60
2022-07-31T20:23:33.907Z,43.80
2022-07-31T20:26:00.773Z,43.80
2022-07-31T20:28:27.587Z,43.90
2022-07-31T20:30:54.636Z,44.00
2022-07-31T20:33:21.711Z,44.10
2022-07-31T20:35:50.348Z,44.30
2022-07-31T20:38:21.544Z,44.50
2022-07-31T20:40:54.328Z,44.60
2022-07-31T20:43:26.595Z,44.50
2022-07-31T20:45:57.649Z,44.80
2022-07-31T20:48:31.171Z,44.70
2022-07-31T20:51:02.913Z,44.90
2022-07-31T20:53:30.284Z,45.00
2022-07-31T20:55:57.514Z,45.30
2022-07-31T20:58:24.843Z,45.50
2022-07-31T21:00:52.492Z,45.40
2022-07-31T21:03:19.445Z,45.60
2022-07-31T21:05:47.119Z,45.70
2022-07-31T21:08:13.934Z,45.80
2022-07-31T21:10:40.886Z,46.00
2022-07-31T21:13:08.044Z,46.10
2022-07-31T21:15:43.155Z,46.30
2022-07-31T21:18:15.992Z,46.30
2022-07-31T21:20:51.066Z,46.50
2022-07-31T21:23:24.126Z,46.50
2022-07-31T21:25:52.251Z,46.60
2022-07-31T21:28:19.275Z,46.60
2022-07-31T21:30:46.752Z,46.60
2022-07-31T21:33:13.721Z,46.70
2022-07-31T21:35:40.902Z,46.60
2022-07-31T21:38:11.876Z,46.80
2022-07-31T21:40:39.973Z,46.90
2022-07-31T21:43:07.358Z,47.00
2022-07-31T21:45:39.554Z,47.10
2022-07-31T21:48:18.468Z,47.10
2022-07-31T21:50:46.229Z,47.30
2022-07-31T21:53:13.847Z,47.30
2022-07-31T21:55:41.278Z,47.50
2022-07-31T21:58:09.338Z,47.70
2022-07-31T22:00:36.723Z,47.80
2022-07-31T22:03:04.232Z,47.90
2022-07-31T22:05:50.471Z,48.00
2022-07-31T22:08:17.411Z,48.10
2022-07-31T22:10:44.624Z,48.00
2022-07-31T22:13:11.677Z,48.20
2022-07-31T22:15:50.497Z,48.30
2022-07-31T22:18:27.570Z,48.60
2022-07-31T22:20:54.411Z,48.60
2022-07-31T22:23:21.301Z,48.70
2022-07-31T22:25:49.492Z,48.80
2022-07-31T22:28:19.178Z,48.90
2022-07-31T22:30:46.158Z,48.90
2022-07-31T22:33:13.218Z,49.10
2022-07-31T22:35:40.872Z,49.20
2022-07-31T22:38:08.364Z,49.30
2022-07-31T22:40:35.288Z,49.50
2022-07-31T22:43:02.503Z,49.60
2022-07-31T22:45:30.137Z,49.70
2022-07-31T22:47:57.534Z,49.80
2022-07-31T22:50:24.385Z,49.70
2022-07-31T22:52:51.483Z,50.00
2022-07-31T22:55:18.252Z,50.00
2022-07-31T22:57:45.516Z,50.20
2022-07-31T23:00:14.281Z,50.20
2022-07-31T23:02:42.603Z,50.40
2022-07-31T23:05:09.809Z,50.30
2022-07-31T23:07:36.948Z,50.70
2022-07-31T23:10:05.721Z,50.60
2022-07-31T23:12:32.542Z,50.60
2022-07-31T23:14:59.295Z,50.60
2022-07-31T23:17:26.118Z,51.00
2022-07-31T23:19:53.916Z,51.80
2022-07-31T23:22:33.329Z,51.10
2022-07-31T23:25:05.182Z,51.30
2022-07-31T23:27:32.945Z,51.30
2022-07-31T23:30:00.195Z,51.30
2022-07-31T23:32:28.189Z,51.40
2022-07-31T23:34:55.149Z,51.60
2022-07-31T23:37:22.181Z,51.80
2022-07-31T23:39:48.892Z,51.80
2022-07-31T23:42:34.399Z,51.90
2022-07-31T23:45:01.162Z,52.10
2022-07-31T23:47:45.682Z,52.30
2022-07-31T23:50:14.175Z,52.50
2022-07-31T23:52:41.416Z,52.60
2022-07-31T23:55:08.540Z,52.70
2022-07-31T23:57:36.064Z,52.90
